Main page
METAR-TAF:

METAR-TAF

Airports :

Larnaca, Cyprus

Larnaca International Airport

latitude: 34-53N, longitude: 033-38E, elevation: 2 m

Current weather observation

The report was made 21 minutes ago, at 05:00 UTC
Wind 3 kt from the North/Northwest
Temperature 14°C
Humidity 94%
Pressure 1018 hPa
Visibility 10 km or more
no clouds below 1500 m and no cumulonimbus

METAR: LCLK 290500Z 33003KT CAVOK 14/13 Q1018 NOSIG

Time: 08:21 (05:21 UTC)

Forecast

The report was made 5 hours and 51 minutes ago, at 23:30 UTC
Forecast valid from 29 at 00 UTC to 29 at 24 UTC
Wind 5 kt from the North
Visibility 10 km or more
Few clouds at a height of 3000 ft
Probability 30%
from 29 at 00 UTC to 29 at 05 UTC
Visibility: 5000 m
Broken clouds at a height of 1000 ft
mist
Becoming
from 29 at 08 UTC to 29 at 11 UTC
Wind 12 kt from the East/Southeast
Becoming
from 29 at 15 UTC to 29 at 18 UTC
Wind 10 kt from the Northeast

TAF: LCLK 282330Z 2900/2924 35005KT 9999 FEW030 PROB30 2900/2905 5000 BR BKN010 BECMG 2908/2911 11012KT BECMG 2915/2918 05010KT

Weather observations and forecasts of more than 4000 airports (METAR and TAF reports).

The available stations are represented by yellow and red dots on the map.

Hover mouse over dot to see the name of the station.

Then click to see weather observations and forecasts.

To change the map : click on the green buttons with a black cross to zoom in, on the green button with a dash to zoom out, or on the green arrows for adjacent maps.


METAR-TAF: